Welcome, Guest. Please login or register.
Did you miss your activation email?

Username: Password:
Outdoor Wood Furnace Info - Statistics Center
General Statistics
Total Members: 8206
Total Posts: 76359
Total Topics: 7167
Total Categories: 6
Users Online: 7
Most Online: 165 - May 22, 2013, 12:42:02 PM
Online Today: 17
Average registrations per day: 6.88
Average posts per day: 22.31
Average topics per day: 2.58
Total Boards: 50
Latest Member: CRSJHorne
Average online per day: 24.94
Male to Female Ratio: 89.8:1
Top 10 Posters Top 10 Boards
mlappin 3846
Scott7m 3740
RSI 2858
willieG 1852
Roger2561 1607
hondaracer2oo4 1421
coolidge 1400
atvalaska 1278
MattyNH 1270
caper 1181
General Outdoor Furnace Discussion 30281
Plumbing 7383
Central Boiler 4646
General Discussion 4343
HeatMaster 3868
Portage & Main 3683
Fire Wood 3234
Home Made 2485
Equipment 2251
Electronics 2170
Top 10 Topics (by Replies) Top 10 Topics (by Views)
new heatmor and having huge issues 491
our wood stoves are horrible but epa thinks this is fine 344
Gasification wood boiler build 303
Almost 172
Wood Consumption vs. Application 144
TYPE of CHAIN SAWS USED 138
ProFab has some issues! 130
Ridgewood stoves 124
Global warming, climate change? Article 124
I'm impressed 123
Synergy Boilers? 579730
HELP! I hate my SHAVER! 467182
TAKE A STAND AGAINST MIDWEST (SYNERGY) BOILERS 446387
Synergy Boilers 98625
Gasification wood boiler build 59973
new heatmor and having huge issues 35410
Truth about Wood Doctor by president 31052
My homemade/modified forced air wood furnace 28214
Suggested Water Temperature on Boiler 28173
Used Hardy Stove info 24455
Top Topic Starters Most Time Online
coolidge 333
Roger2561 219
mlappin 108
slimjim 107
Scott7m 102
d5knapp 90
userdk 70
AirForcePOL 66
hondaracer2oo4 60
heat550 55
slimjim 89d 20h 18m
willieG 89d 16h 0m
RSI 46d 20h 14m
mlappin 36d 21h 49m
Scott7m 35d 21h 14m
koutsman 29d 14h 29m
MD20/20 26d 14h 52m
sceptre74 24d 20h 54m
CountryBoyJohn 21d 1h 58m
Roger2561 20d 16h 48m
Forum History (using forum time offset)
Yearly Summary New Topics New Posts New Members Most Online
* 2018 195 2252 2014 54
* 2017 597 7391 3268 65
December 2017 70 940 259 42
November 2017 77 940 272 40
October 2017 66 673 305 48
September 2017 40 581 253 42
August 2017 50 619 275 31
July 2017 16 164 329 33
June 2017 28 227 264 54
May 2017 30 407 291 45
April 2017 40 748 290 60
March 2017 46 601 306 49
2017-03-01 2 22 17 22
2017-03-02 2 14 16 22
2017-03-03 1 33 11 48
2017-03-04 5 48 10 26
2017-03-05 0 27 13 26
2017-03-06 5 41 10 21
2017-03-07 1 27 10 23
2017-03-08 4 37 10 27
2017-03-09 1 18 14 27
2017-03-10 1 17 11 49
2017-03-11 0 25 8 22
2017-03-12 3 10 8 25
2017-03-13 2 19 2 22
2017-03-14 1 20 8 21
2017-03-15 1 28 7 21
2017-03-16 2 21 13 30
2017-03-17 1 17 10 32
2017-03-18 0 16 7 34
2017-03-19 1 15 9 25
2017-03-20 0 5 10 28
2017-03-21 0 1 8 28
2017-03-22 2 16 6 46
2017-03-23 0 15 10 24
2017-03-24 2 18 6 46
2017-03-25 2 25 3 20
2017-03-26 2 12 9 31
2017-03-27 2 21 14 32
2017-03-28 2 11 9 21
2017-03-29 0 14 19 30
2017-03-30 0 3 8 23
2017-03-31 1 5 10 43
February 2017 43 569 241 65
2017-02-01 0 24 7 23
2017-02-02 2 22 2 22
2017-02-03 2 16 8 28
2017-02-04 1 42 8 22
2017-02-05 1 19 6 21
2017-02-06 1 11 6 53
2017-02-07 2 13 11 65
2017-02-08 1 8 12 23
2017-02-09 3 13 9 24
2017-02-10 2 28 17 24
2017-02-11 3 17 10 25
2017-02-12 1 13 5 24
2017-02-13 1 18 6 25
2017-02-14 2 35 6 39
2017-02-15 1 17 6 24
2017-02-16 2 15 12 50
2017-02-17 0 7 9 36
2017-02-18 2 17 5 45
2017-02-19 1 21 6 27
2017-02-20 5 25 7 22
2017-02-21 0 24 9 28
2017-02-22 2 55 9 32
2017-02-23 1 20 9 34
2017-02-24 0 23 16 40
2017-02-25 0 18 12 50
2017-02-26 3 15 14 40
2017-02-27 2 21 5 43
2017-02-28 2 12 9 59
January 2017 91 922 183 53
* 2016 546 5025 3090 75
December 2016 75 786 262 49
November 2016 55 512 251 75
October 2016 50 389 217 39
September 2016 43 244 237 27
August 2016 20 105 129 44
2016-08-01 1 5 5 29
2016-08-02 0 1 2 26
2016-08-03 0 7 1 24
2016-08-04 4 9 4 19
2016-08-05 0 12 4 19
2016-08-06 0 3 3 17
2016-08-07 0 0 4 21
2016-08-08 0 0 2 18
2016-08-09 0 0 2 44
2016-08-10 0 0 5 24
2016-08-11 0 0 6 21
2016-08-12 0 0 3 16
2016-08-13 1 5 1 16
2016-08-14 1 5 0 18
2016-08-15 0 2 1 18
2016-08-16 1 3 2 20
2016-08-17 0 0 4 18
2016-08-18 0 2 5 33
2016-08-19 0 1 4 29
2016-08-20 1 1 5 21
2016-08-21 1 1 3 18
2016-08-22 1 3 12 19
2016-08-23 1 4 4 19
2016-08-24 2 4 4 37
2016-08-25 0 3 7 18
2016-08-26 2 8 5 16
2016-08-27 1 6 7 24
2016-08-28 2 7 5 18
2016-08-29 1 5 10 16
2016-08-30 0 3 3 18
2016-08-31 0 5 6 19
July 2016 14 75 126 53
June 2016 11 86 151 49
May 2016 22 164 179 39
April 2016 22 222 548 51
2016-04-01 2 8 41 33
2016-04-02 2 9 26 50
2016-04-03 1 9 57 47
2016-04-04 3 16 31 51
2016-04-05 1 9 36 25
2016-04-06 1 4 56 28
2016-04-07 1 9 40 33
2016-04-08 1 32 45 29
2016-04-09 0 9 28 24
2016-04-10 0 11 42 24
2016-04-11 1 11 32 30
2016-04-12 0 5 11 40
2016-04-13 1 9 6 24
2016-04-14 0 9 10 22
2016-04-15 0 7 10 25
2016-04-16 1 4 4 36
2016-04-17 2 4 3 28
2016-04-18 0 5 11 23
2016-04-19 1 6 4 28
2016-04-20 2 12 3 28
2016-04-21 0 6 8 27
2016-04-22 0 2 3 25
2016-04-23 2 6 3 23
2016-04-24 0 4 5 22
2016-04-25 0 4 5 21
2016-04-26 0 3 8 21
2016-04-27 0 0 6 26
2016-04-28 0 3 4 25
2016-04-29 0 2 4 24
2016-04-30 0 4 6 21
March 2016 43 454 576 68
February 2016 74 806 123 58
January 2016 117 1182 291 52
* 2015 1317 11279 9513 67
December 2015 106 910 2179 40
November 2015 236 968 2620 60
October 2015 169 843 906 46
September 2015 42 202 593 35
August 2015 49 274 447 41
July 2015 35 353 449 53
June 2015 32 269 266 42
May 2015 66 519 364 46
April 2015 92 795 418 39
March 2015 113 1670 400 46
February 2015 175 2072 445 56
January 2015 202 2404 426 67
2015-01-01 10 82 8 62
2015-01-02 5 89 8 51
2015-01-03 11 111 5 42
2015-01-04 7 49 7 48
2015-01-05 9 124 12 49
2015-01-06 11 127 12 49
2015-01-07 12 118 10 56
2015-01-08 10 123 8 47
2015-01-09 9 63 10 43
2015-01-10 7 65 14 45
2015-01-11 3 63 11 45
2015-01-12 11 96 13 44
2015-01-13 5 86 17 45
2015-01-14 2 74 16 46
2015-01-15 6 53 16 46
2015-01-16 10 115 14 60
2015-01-17 5 32 12 40
2015-01-18 8 62 14 41
2015-01-19 5 65 17 43
2015-01-20 4 53 21 42
2015-01-21 0 48 19 37
2015-01-22 6 90 17 45
2015-01-23 4 62 31 49
2015-01-24 3 41 17 48
2015-01-25 6 64 19 46
2015-01-26 6 66 13 47
2015-01-27 10 88 18 47
2015-01-28 3 85 10 49
2015-01-29 6 92 12 49
2015-01-30 5 70 11 67
2015-01-31 3 48 14 41
* 2014 2461 21938 4588 110
December 2014 215 2107 549 52
November 2014 197 1812 286 67
2014-11-01 4 43 6 44
2014-11-02 13 58 5 52
2014-11-03 9 76 13 53
2014-11-04 3 53 8 59
2014-11-05 5 64 16 52
2014-11-06 5 42 9 44
2014-11-07 8 59 14 51
2014-11-08 8 49 5 52
2014-11-09 9 79 12 56
2014-11-10 8 84 4 67
2014-11-11 6 76 11 47
2014-11-12 12 67 8 53
2014-11-13 2 63 10 44
2014-11-14 8 55 4 49
2014-11-15 2 48 7 43
2014-11-16 6 47 11 52
2014-11-17 6 72 18 54
2014-11-18 9 81 21 55
2014-11-19 13 84 17 53
2014-11-20 9 86 10 52
2014-11-21 6 63 7 46
2014-11-22 9 78 8 50
2014-11-23 6 60 5 45
2014-11-24 7 57 8 48
2014-11-25 1 55 10 44
2014-11-26 5 63 9 44
2014-11-27 3 32 10 42
2014-11-28 6 39 5 46
2014-11-29 4 54 10 39
2014-11-30 5 25 5 44
October 2014 172 1628 410 60
2014-10-01 9 55 11 36
2014-10-02 5 51 10 44
2014-10-03 3 30 8 47
2014-10-04 5 20 17 46
2014-10-05 6 66 26 54
2014-10-06 8 93 19 51
2014-10-07 4 52 28 51
2014-10-08 7 53 15 49
2014-10-09 6 60 22 47
2014-10-10 3 52 20 54
2014-10-11 4 25 13 45
2014-10-12 3 22 15 49
2014-10-13 2 38 14 54
2014-10-14 4 34 10 56
2014-10-15 6 51 11 52
2014-10-16 6 106 11 47
2014-10-17 10 69 6 46
2014-10-18 8 43 11 45
2014-10-19 8 65 9 60
2014-10-20 4 60 15 55
2014-10-21 5 56 17 59
2014-10-22 7 62 16 51
2014-10-23 5 63 2 54
2014-10-24 2 27 14 46
2014-10-25 3 23 10 42
2014-10-26 9 54 9 46
2014-10-27 7 55 12 56
2014-10-28 4 69 9 51
2014-10-29 4 60 11 49
2014-10-30 9 63 8 50
2014-10-31 6 51 11 50
September 2014 122 1114 280 58
August 2014 75 619 251 50
July 2014 63 577 318 56
2014-07-01 0 5 8 47
2014-07-02 4 31 16 48
2014-07-03 2 23 8 44
2014-07-04 2 3 12 47
2014-07-05 2 12 13 56
2014-07-06 2 22 14 45
2014-07-07 2 25 16 42
2014-07-08 1 12 12 42
2014-07-09 2 23 12 45
2014-07-10 5 18 7 41
2014-07-11 2 25 15 52
2014-07-12 1 14 8 33
2014-07-13 2 20 10 35
2014-07-14 1 33 9 41
2014-07-15 6 48 16 51
2014-07-16 2 27 11 51
2014-07-17 1 9 10 46
2014-07-18 0 5 8 38
2014-07-19 1 1 7 34
2014-07-20 1 9 9 35
2014-07-21 2 11 10 33
2014-07-22 4 13 10 42
2014-07-23 2 16 8 39
2014-07-24 2 23 11 39
2014-07-25 4 35 10 45
2014-07-26 2 25 7 41
2014-07-27 1 7 12 41
2014-07-28 1 11 8 41
2014-07-29 1 21 5 30
2014-07-30 3 22 6 53
2014-07-31 2 28 10 38
June 2014 654 2289 733 61
May 2014 158 1011 490 49
April 2014 130 2321 281 57
March 2014 188 2594 282 110
February 2014 229 2915 334 78
January 2014 258 2951 374 86
* 2013 1171 11341 1091 165
December 2013 205 1813 294 78
November 2013 192 1828 102 74
October 2013 141 1460 116 55
September 2013 98 808 75 40
August 2013 38 293 35 45
July 2013 46 253 28 37
2013-07-01 1 20 0 21
2013-07-02 0 8 1 24
2013-07-03 1 19 2 17
2013-07-04 1 9 0 15
2013-07-05 1 4 0 16
2013-07-06 0 1 0 23
2013-07-07 0 5 0 17
2013-07-08 2 12 1 23
2013-07-09 0 5 2 24
2013-07-10 0 13 0 23
2013-07-11 1 11 1 20
2013-07-12 2 3 2 37
2013-07-13 1 5 1 18
2013-07-14 0 1 0 19
2013-07-15 0 7 0 20
2013-07-16 0 15 2 33
2013-07-17 1 8 0 20
2013-07-18 0 5 0 25
2013-07-19 5 5 2 24
2013-07-20 0 0 0 19
2013-07-21 1 1 0 33
2013-07-22 1 6 1 16
2013-07-23 8 14 3 21
2013-07-24 8 13 3 17
2013-07-25 1 6 0 19
2013-07-26 1 3 1 15
2013-07-27 1 3 0 20
2013-07-28 3 12 2 19
2013-07-29 1 15 2 27
2013-07-30 2 5 1 19
2013-07-31 3 19 1 21
June 2013 26 213 86 31
May 2013 51 348 42 165
April 2013 57 539 51 88
March 2013 69 744 58 64
February 2013 110 1403 91 51
January 2013 138 1639 113 49
* 2012 1863 11381 918 70
* 2011 741 7884 698 76
* 2010 444 2717 284 98
December 2010 51 657 81 27
November 2010 39 339 52 25
October 2010 43 332 38 20
September 2010 34 254 23 14
August 2010 9 72 14 14
July 2010 10 60 8 16
June 2010 11 51 4 15
May 2010 8 42 9 12
April 2010 13 94 10 13
March 2010 157 266 11 14
February 2010 23 193 7 98
2010-02-01 1 3 0 10
2010-02-02 0 7 1 16
2010-02-03 0 4 0 15
2010-02-04 0 0 0 10
2010-02-05 1 4 0 10
2010-02-06 3 4 0 8
2010-02-07 1 4 1 10
2010-02-08 0 7 0 9
2010-02-09 0 5 1 12
2010-02-10 3 18 1 12
2010-02-11 2 31 1 12
2010-02-12 0 5 0 14
2010-02-13 0 4 0 10
2010-02-14 2 18 0 12
2010-02-15 0 5 0 15
2010-02-16 2 12 0 20
2010-02-17 0 9 0 14
2010-02-18 1 3 0 8
2010-02-19 1 8 1 10
2010-02-20 1 2 0 11
2010-02-21 3 7 0 11
2010-02-22 0 3 0 11
2010-02-23 0 2 0 12
2010-02-24 0 12 0 11
2010-02-25 2 4 1 9
2010-02-26 0 3 0 16
2010-02-27 0 9 0 98
2010-02-28 0 0 0 9
January 2010 46 357 27 18
2010-01-01 0 10 0 9
2010-01-02 2 8 1 8
2010-01-03 3 36 1 13
2010-01-04 1 15 2 10
2010-01-05 5 15 1 12
2010-01-06 1 10 2 10
2010-01-07 1 12 1 14
2010-01-08 3 28 0 9
2010-01-09 0 3 0 7
2010-01-10 4 19 1 8
2010-01-11 2 13 2 13
2010-01-12 0 17 1 11
2010-01-13 2 9 1 9
2010-01-14 2 26 0 14
2010-01-15 0 22 0 10
2010-01-16 0 1 2 8
2010-01-17 0 1 0 8
2010-01-18 1 4 0 10
2010-01-19 0 6 1 11
2010-01-20 3 13 3 11
2010-01-21 0 6 0 8
2010-01-22 1 3 0 18
2010-01-23 2 10 1 11
2010-01-24 0 4 1 11
2010-01-25 3 12 0 10
2010-01-26 2 6 1 14
2010-01-27 2 10 1 13
2010-01-28 1 7 1 9
2010-01-29 1 3 0 12
2010-01-30 2 15 2 10
2010-01-31 2 13 1 15
* 2009 217 1823 163 20
* 2008 119 553 148 28